createdAt,value
2023-02-18T00:00:22.261Z,6.10
2023-02-18T00:00:44.970Z,6.10
2023-02-18T00:01:09.933Z,6.00
2023-02-18T00:01:32.648Z,6.00
2023-02-18T00:01:55.350Z,6.00
2023-02-18T00:02:18.138Z,6.00
2023-02-18T00:02:41.008Z,6.00
2023-02-18T00:03:03.864Z,6.10
2023-02-18T00:03:26.722Z,6.10
2023-02-18T00:03:49.766Z,6.10
2023-02-18T00:04:12.802Z,6.20
2023-02-18T00:04:35.621Z,6.10
2023-02-18T00:05:01.100Z,6.20
2023-02-18T00:05:23.938Z,6.10
2023-02-18T00:05:46.638Z,6.10
2023-02-18T00:06:14.775Z,6.20
2023-02-18T00:06:38.913Z,6.10
2023-02-18T00:07:01.610Z,6.10
2023-02-18T00:07:24.369Z,6.10
2023-02-18T00:07:47.092Z,6.10
2023-02-18T00:08:09.873Z,6.10
2023-02-18T00:08:32.555Z,6.10
2023-02-18T00:08:55.393Z,6.10
2023-02-18T00:09:18.096Z,6.00
2023-02-18T00:09:40.884Z,6.00
2023-02-18T00:10:03.940Z,6.10
2023-02-18T00:10:27.112Z,6.00
2023-02-18T00:10:49.825Z,6.00
2023-02-18T00:11:12.682Z,6.10
2023-02-18T00:11:36.101Z,6.00
2023-02-18T00:12:00.194Z,6.10
2023-02-18T00:12:22.889Z,6.00
2023-02-18T00:12:45.644Z,6.00
2023-02-18T00:13:08.439Z,6.00
2023-02-18T00:13:31.140Z,6.00
2023-02-18T00:13:55.024Z,6.00
2023-02-18T00:14:17.839Z,6.00
2023-02-18T00:14:40.729Z,5.90
2023-02-18T00:15:03.373Z,5.90
2023-02-18T00:15:26.252Z,5.90
2023-02-18T00:15:49.050Z,5.90
2023-02-18T00:16:13.146Z,5.80
2023-02-18T00:16:36.023Z,5.80
2023-02-18T00:16:58.744Z,5.80
2023-02-18T00:17:21.425Z,5.80
2023-02-18T00:17:44.222Z,5.80
2023-02-18T00:18:07.034Z,5.80
2023-02-18T00:18:29.776Z,5.80
2023-02-18T00:18:55.537Z,5.80
2023-02-18T00:19:19.094Z,5.80
2023-02-18T00:19:41.894Z,5.80
2023-02-18T00:20:05.779Z,5.80
2023-02-18T00:20:28.655Z,5.80
2023-02-18T00:20:51.364Z,5.80
2023-02-18T00:21:14.173Z,5.90
2023-02-18T00:21:37.089Z,5.90
2023-02-18T00:21:59.849Z,5.90
2023-02-18T00:22:22.729Z,5.90
2023-02-18T00:22:45.410Z,6.00
2023-02-18T00:23:08.235Z,6.00
2023-02-18T00:23:30.974Z,6.00
2023-02-18T00:23:53.736Z,6.00
2023-02-18T00:24:16.817Z,6.10
2023-02-18T00:24:40.573Z,6.10
2023-02-18T00:25:03.254Z,6.10
2023-02-18T00:25:25.973Z,6.10
2023-02-18T00:25:48.667Z,6.10
2023-02-18T00:26:12.352Z,6.10
2023-02-18T00:26:35.167Z,6.10
2023-02-18T00:26:59.300Z,6.10
2023-02-18T00:27:22.804Z,6.00
2023-02-18T00:27:45.481Z,6.10
2023-02-18T00:28:08.194Z,6.10
2023-02-18T00:28:30.933Z,6.10
2023-02-18T00:28:54.414Z,6.00
2023-02-18T00:29:17.305Z,6.00
2023-02-18T00:29:40.092Z,6.00
2023-02-18T00:30:04.401Z,6.00
2023-02-18T00:30:28.719Z,6.00
2023-02-18T00:30:51.434Z,6.00
2023-02-18T00:31:17.796Z,6.00
2023-02-18T00:31:41.539Z,6.00
2023-02-18T00:32:04.448Z,6.00
2023-02-18T00:32:27.397Z,5.90
2023-02-18T00:32:50.081Z,5.90
2023-02-18T00:33:12.818Z,5.90
2023-02-18T00:33:35.518Z,5.90
2023-02-18T00:33:58.513Z,5.90
2023-02-18T00:34:21.274Z,5.90
2023-02-18T00:34:44.010Z,5.90
2023-02-18T00:35:07.533Z,5.90
2023-02-18T00:35:30.304Z,5.90
2023-02-18T00:35:53.123Z,5.90
2023-02-18T00:36:16.625Z,5.80
2023-02-18T00:36:39.231Z,5.90
2023-02-18T00:37:01.946Z,5.80
2023-02-18T00:37:24.718Z,5.80
2023-02-18T00:37:47.563Z,5.80
2023-02-18T00:38:10.376Z,5.80
2023-02-18T00:38:33.594Z,5.80
2023-02-18T00:38:57.008Z,5.80
2023-02-18T00:39:19.746Z,5.80
2023-02-18T00:39:42.584Z,5.80
2023-02-18T00:40:07.050Z,5.80
2023-02-18T00:40:29.787Z,5.80
2023-02-18T00:40:52.491Z,5.80
2023-02-18T00:41:15.305Z,5.80
2023-02-18T00:41:38.264Z,5.80
2023-02-18T00:42:02.424Z,5.80
2023-02-18T00:42:25.168Z,5.90
2023-02-18T00:42:47.901Z,5.90
2023-02-18T00:43:10.754Z,5.90
2023-02-18T00:43:33.634Z,5.90
2023-02-18T00:43:56.322Z,5.90
2023-02-18T00:44:19.058Z,5.90
2023-02-18T00:44:42.075Z,5.90
2023-02-18T00:45:05.364Z,5.90
2023-02-18T00:45:29.156Z,5.90
2023-02-18T00:45:52.378Z,5.90
2023-02-18T00:46:15.324Z,5.90
2023-02-18T00:46:38.383Z,5.90
2023-02-18T00:47:01.138Z,6.00
2023-02-18T00:47:23.817Z,6.00
2023-02-18T00:47:46.534Z,6.00
2023-02-18T00:48:11.843Z,6.00
2023-02-18T00:48:35.058Z,5.90
2023-02-18T00:48:57.918Z,5.90
2023-02-18T00:49:20.650Z,5.90
2023-02-18T00:49:43.482Z,5.90
2023-02-18T00:50:08.258Z,5.90
2023-02-18T00:50:30.923Z,5.90
2023-02-18T00:50:53.576Z,6.00
2023-02-18T00:51:16.478Z,6.00
2023-02-18T00:51:39.188Z,5.90
2023-02-18T00:52:01.912Z,5.90
2023-02-18T00:52:27.078Z,5.90
2023-02-18T00:52:49.764Z,5.90
2023-02-18T00:53:12.515Z,5.90
2023-02-18T00:53:36.660Z,5.90
2023-02-18T00:53:59.374Z,5.90
2023-02-18T00:54:22.088Z,5.90
2023-02-18T00:54:44.923Z,5.90
2023-02-18T00:55:08.109Z,5.80
2023-02-18T00:55:30.838Z,5.80
2023-02-18T00:55:53.493Z,5.80
2023-02-18T00:56:16.713Z,5.80
2023-02-18T00:56:39.473Z,5.80
2023-02-18T00:57:03.763Z,5.80
2023-02-18T00:57:26.924Z,5.90
2023-02-18T00:57:49.636Z,5.90
2023-02-18T00:58:12.362Z,5.90
2023-02-18T00:58:34.986Z,5.90
2023-02-18T00:58:57.727Z,5.90
2023-02-18T00:59:20.532Z,5.90
2023-02-18T00:59:43.317Z,5.90
2023-02-18T01:00:08.061Z,5.90
2023-02-18T01:00:30.885Z,6.00
2023-02-18T01:00:54.168Z,6.00
2023-02-18T01:01:16.910Z,6.00
2023-02-18T01:01:39.763Z,6.00
2023-02-18T01:02:02.581Z,6.00
2023-02-18T01:02:25.304Z,6.00
2023-02-18T01:02:48.114Z,6.00
2023-02-18T01:03:10.899Z,6.00
2023-02-18T01:03:33.612Z,6.00
2023-02-18T01:03:56.370Z,6.00
2023-02-18T01:04:19.175Z,6.00
2023-02-18T01:04:41.996Z,6.00
2023-02-18T01:05:05.083Z,6.00
2023-02-18T01:05:27.886Z,6.00
2023-02-18T01:05:50.650Z,6.10
2023-02-18T01:06:14.030Z,6.00
2023-02-18T01:06:36.921Z,6.00
2023-02-18T01:06:59.666Z,6.00
2023-02-18T01:07:22.395Z,6.00
2023-02-18T01:07:45.167Z,6.00
2023-02-18T01:08:08.110Z,6.00
2023-02-18T01:08:33.743Z,6.00
2023-02-18T01:08:56.492Z,6.00
2023-02-18T01:09:19.256Z,6.00
2023-02-18T01:09:41.986Z,6.00
2023-02-18T01:10:05.542Z,5.90
2023-02-18T01:10:28.329Z,5.90
2023-02-18T01:10:53.941Z,5.90
2023-02-18T01:11:16.643Z,5.90
2023-02-18T01:11:39.372Z,5.90
2023-02-18T01:12:03.882Z,5.90
2023-02-18T01:12:26.713Z,5.90
2023-02-18T01:12:49.526Z,5.90
2023-02-18T01:13:12.833Z,5.90
2023-02-18T01:13:35.764Z,5.90
2023-02-18T01:13:59.502Z,5.90
2023-02-18T01:14:22.262Z,5.90
2023-02-18T01:14:45.009Z,5.90
2023-02-18T01:15:08.676Z,5.90
2023-02-18T01:15:31.492Z,5.90
2023-02-18T01:15:54.293Z,5.80
2023-02-18T01:16:17.534Z,5.80
2023-02-18T01:16:40.333Z,5.80
2023-02-18T01:17:03.054Z,5.80
2023-02-18T01:17:25.734Z,5.80
2023-02-18T01:17:48.355Z,5.80
2023-02-18T01:18:11.706Z,5.80
2023-02-18T01:18:34.477Z,5.80
2023-02-18T01:19:00.027Z,5.80
2023-02-18T01:19:22.728Z,5.80
2023-02-18T01:19:45.518Z,5.80
2023-02-18T01:20:09.314Z,5.80
2023-02-18T01:20:32.140Z,5.80
2023-02-18T01:20:54.930Z,5.80
2023-02-18T01:21:17.748Z,5.80
2023-02-18T01:21:40.472Z,5.90
2023-02-18T01:22:03.181Z,5.90
2023-02-18T01:22:25.892Z,5.90
2023-02-18T01:22:48.580Z,5.80
2023-02-18T01:23:11.348Z,5.80
2023-02-18T01:23:34.124Z,5.90
2023-02-18T01:23:56.830Z,5.80
2023-02-18T01:24:19.545Z,5.80
2023-02-18T01:24:42.341Z,5.80
2023-02-18T01:25:05.379Z,5.80
2023-02-18T01:25:28.053Z,5.80
2023-02-18T01:25:50.809Z,5.80
2023-02-18T01:26:13.607Z,5.80
2023-02-18T01:26:36.354Z,5.80
2023-02-18T01:26:59.017Z,5.80
2023-02-18T01:27:25.758Z,5.80
2023-02-18T01:27:48.421Z,5.80
2023-02-18T01:28:11.502Z,5.80
2023-02-18T01:28:34.158Z,5.80
2023-02-18T01:28:56.821Z,5.80
2023-02-18T01:29:19.578Z,5.80
2023-02-18T01:29:43.477Z,5.80
2023-02-18T01:30:08.223Z,5.80
2023-02-18T01:30:31.049Z,5.80
2023-02-18T01:30:54.010Z,5.80
2023-02-18T01:31:17.066Z,5.80
2023-02-18T01:31:40.085Z,5.80
2023-02-18T01:32:02.962Z,5.80
2023-02-18T01:32:25.859Z,5.80
2023-02-18T01:32:48.762Z,5.80
2023-02-18T01:33:11.529Z,5.80
2023-02-18T01:33:34.254Z,5.80
2023-02-18T01:33:57.017Z,5.80
2023-02-18T01:34:19.741Z,5.90
2023-02-18T01:34:42.439Z,5.90
2023-02-18T01:35:07.015Z,5.90
2023-02-18T01:35:32.304Z,5.90
2023-02-18T01:35:55.025Z,5.90
2023-02-18T01:36:19.110Z,5.90
2023-02-18T01:36:41.793Z,5.90
2023-02-18T01:37:04.449Z,5.90
2023-02-18T01:37:27.228Z,5.90
2023-02-18T01:37:49.984Z,5.90
2023-02-18T01:38:12.727Z,5.90
2023-02-18T01:38:35.536Z,5.90
2023-02-18T01:38:58.217Z,5.90
2023-02-18T01:39:20.894Z,5.90
2023-02-18T01:39:43.546Z,5.90
2023-02-18T01:40:07.793Z,5.90
2023-02-18T01:40:30.581Z,5.90
2023-02-18T01:40:53.507Z,5.80
2023-02-18T01:41:16.181Z,5.90
2023-02-18T01:41:38.863Z,5.90
2023-02-18T01:42:01.554Z,5.90
2023-02-18T01:42:26.895Z,5.90
2023-02-18T01:42:49.766Z,5.90
2023-02-18T01:43:12.550Z,5.90
2023-02-18T01:43:35.530Z,5.90
2023-02-18T01:44:15.194Z,5.90
2023-02-18T01:44:37.935Z,5.90
2023-02-18T01:45:39.429Z,5.90
2023-02-18T01:46:16.658Z,5.90
2023-02-18T01:46:39.402Z,6.00
2023-02-18T01:47:02.123Z,6.00
2023-02-18T01:47:24.754Z,6.00
2023-02-18T01:47:49.645Z,6.00
2023-02-18T01:48:14.086Z,6.10
2023-02-18T01:48:39.727Z,6.00
2023-02-18T01:49:02.629Z,6.00
2023-02-18T01:49:27.036Z,6.00
2023-02-18T01:49:51.424Z,6.00
2023-02-18T01:50:14.098Z,6.10
2023-02-18T01:50:39.014Z,6.00
2023-02-18T01:51:06.035Z,6.00
2023-02-18T01:51:30.343Z,6.00
2023-02-18T01:51:54.727Z,6.00
2023-02-18T01:52:18.574Z,6.00
2023-02-18T01:52:41.273Z,6.00
2023-02-18T01:53:03.993Z,6.00
2023-02-18T01:53:28.429Z,6.00
2023-02-18T01:53:54.373Z,6.00
2023-02-18T01:54:19.823Z,6.00
2023-02-18T01:54:44.607Z,6.00
2023-02-18T01:55:07.382Z,6.00
2023-02-18T01:55:30.097Z,6.10
2023-02-18T01:55:52.843Z,6.00
2023-02-18T01:56:19.523Z,6.00
2023-02-18T01:56:45.217Z,6.00
2023-02-18T01:57:09.917Z,6.00
2023-02-18T01:57:36.031Z,6.00
2023-02-18T01:57:58.691Z,6.10
2023-02-18T01:58:21.420Z,6.10
2023-02-18T01:58:44.157Z,6.10
2023-02-18T01:59:09.182Z,6.10
2023-02-18T01:59:33.146Z,6.10
2023-02-18T01:59:56.663Z,6.10
2023-02-18T02:00:22.286Z,6.10
2023-02-18T02:00:45.015Z,6.10
2023-02-18T02:01:07.761Z,6.10
2023-02-18T02:01:30.994Z,6.10
2023-02-18T02:01:53.691Z,6.10
2023-02-18T02:02:18.327Z,6.10
2023-02-18T02:02:46.752Z,6.10
2023-02-18T02:03:09.651Z,6.20
2023-02-18T02:03:32.317Z,6.20
2023-02-18T02:03:55.102Z,6.20
2023-02-18T02:04:17.866Z,6.20
2023-02-18T02:04:40.737Z,6.20
2023-02-18T02:05:03.473Z,6.20
2023-02-18T02:05:30.910Z,6.20
2023-02-18T02:05:53.621Z,6.20
2023-02-18T02:06:18.134Z,6.20
2023-02-18T02:06:40.876Z,6.20
2023-02-18T02:07:03.531Z,6.30
2023-02-18T02:07:27.170Z,6.30
2023-02-18T02:07:51.379Z,6.30
2023-02-18T02:08:14.157Z,6.30
2023-02-18T02:08:36.866Z,6.30
2023-02-18T02:09:01.182Z,6.40
2023-02-18T02:09:25.136Z,6.30
2023-02-18T02:09:47.871Z,6.40
2023-02-18T02:10:10.771Z,6.40
2023-02-18T02:10:40.983Z,6.40
2023-02-18T02:11:11.054Z,6.40
2023-02-18T02:12:06.103Z,6.30
2023-02-18T02:12:43.690Z,6.30
2023-02-18T02:13:10.082Z,6.30
2023-02-18T02:13:40.886Z,6.30
2023-02-18T02:14:27.084Z,6.20
2023-02-18T02:15:07.698Z,6.30
2023-02-18T02:15:37.919Z,6.30
2023-02-18T02:16:03.866Z,6.30
2023-02-18T02:16:29.792Z,6.30
2023-02-18T02:16:55.687Z,6.20
2023-02-18T02:17:35.479Z,6.20
2023-02-18T02:18:09.552Z,6.20
2023-02-18T02:18:46.096Z,6.30
2023-02-18T02:19:22.570Z,6.30
2023-02-18T02:20:32.766Z,6.20
2023-02-18T02:21:25.268Z,6.30
2023-02-18T02:22:17.908Z,6.30
2023-02-18T02:23:10.442Z,6.30
2023-02-18T02:23:50.387Z,6.20
2023-02-18T02:24:45.124Z,6.30
2023-02-18T02:25:17.138Z,6.30
2023-02-18T02:25:51.372Z,6.20
2023-02-18T02:26:40.319Z,6.20
2023-02-18T02:27:13.106Z,6.20
2023-02-18T02:27:52.184Z,6.20
2023-02-18T02:28:59.627Z,6.20
2023-02-18T02:29:45.727Z,6.20
2023-02-18T02:30:52.547Z,6.20
2023-02-18T02:31:45.152Z,6.30
2023-02-18T02:32:36.283Z,6.30
2023-02-18T02:33:34.476Z,6.30
2023-02-18T02:34:25.505Z,6.30
2023-02-18T02:34:53.594Z,6.30
2023-02-18T02:35:16.956Z,6.30
2023-02-18T02:35:39.858Z,6.30
2023-02-18T02:36:05.028Z,6.30
2023-02-18T02:36:29.402Z,6.40
2023-02-18T02:36:53.768Z,6.40
2023-02-18T02:37:18.790Z,6.40
2023-02-18T02:37:44.758Z,6.40
2023-02-18T02:38:09.609Z,6.40
2023-02-18T02:38:34.676Z,6.40
2023-02-18T02:39:00.816Z,6.30
2023-02-18T02:39:30.556Z,6.30
2023-02-18T02:39:58.416Z,6.30
2023-02-18T02:40:23.431Z,6.20
2023-02-18T02:40:47.679Z,6.30
2023-02-18T02:41:16.173Z,6.20
2023-02-18T02:41:44.964Z,6.30
2023-02-18T02:42:11.527Z,6.20
2023-02-18T02:42:41.622Z,6.20
2023-02-18T02:43:07.517Z,6.20
2023-02-18T02:43:34.731Z,6.20
2023-02-18T02:44:02.682Z,6.20
2023-02-18T02:44:28.559Z,6.20
2023-02-18T02:44:54.854Z,6.30
2023-02-18T02:45:22.347Z,6.30
2023-02-18T02:45:54.937Z,6.30
2023-02-18T02:46:20.204Z,6.30
2023-02-18T02:46:44.794Z,6.30
2023-02-18T02:47:09.874Z,6.30
2023-02-18T02:47:35.259Z,6.30
2023-02-18T02:48:01.462Z,6.20
2023-02-18T02:48:30.612Z,6.20
2023-02-18T02:48:57.959Z,6.20
2023-02-18T02:49:32.871Z,6.10
2023-02-18T02:49:59.050Z,6.10
2023-02-18T02:50:26.030Z,6.10
2023-02-18T02:50:52.474Z,6.10
2023-02-18T02:51:18.405Z,6.10
2023-02-18T02:51:43.078Z,6.10
2023-02-18T02:52:08.060Z,6.10
2023-02-18T02:52:32.482Z,6.10
2023-02-18T02:52:57.323Z,6.10
2023-02-18T02:53:22.431Z,6.20
2023-02-18T02:53:45.190Z,6.20
2023-02-18T02:54:13.859Z,6.20
2023-02-18T02:54:36.603Z,6.20
2023-02-18T02:54:59.337Z,6.20
2023-02-18T02:55:22.330Z,6.10
2023-02-18T02:55:45.058Z,6.10
2023-02-18T02:56:10.332Z,6.10
2023-02-18T02:56:33.188Z,6.10
2023-02-18T02:57:06.574Z,6.10
2023-02-18T02:57:53.691Z,6.10
2023-02-18T02:58:17.171Z,6.10
2023-02-18T02:58:39.864Z,6.10
2023-02-18T02:59:03.619Z,6.10
2023-02-18T02:59:26.732Z,6.10
2023-02-18T02:59:51.362Z,6.00
2023-02-18T03:00:16.087Z,6.00
2023-02-18T03:00:42.996Z,6.00
2023-02-18T03:01:18.858Z,6.10
2023-02-18T03:01:47.581Z,6.00
2023-02-18T03:02:18.983Z,6.00
2023-02-18T03:02:49.676Z,6.00
2023-02-18T03:03:40.267Z,6.00
2023-02-18T03:04:17.939Z,6.00
2023-02-18T03:04:54.727Z,6.00
2023-02-18T03:05:22.005Z,6.00
2023-02-18T03:05:53.146Z,6.00
2023-02-18T03:06:36.486Z,6.00
2023-02-18T03:07:29.678Z,6.00
2023-02-18T03:08:08.968Z,6.00
2023-02-18T03:08:39.049Z,6.00
2023-02-18T03:09:05.159Z,6.00
2023-02-18T03:09:32.178Z,6.00
2023-02-18T03:10:07.720Z,6.00
2023-02-18T03:10:38.182Z,6.00
2023-02-18T03:11:04.422Z,6.10
2023-02-18T03:11:27.144Z,6.10
2023-02-18T03:11:53.922Z,6.00
2023-02-18T03:12:19.922Z,6.10
2023-02-18T03:12:47.335Z,6.10
2023-02-18T03:13:14.253Z,6.10
2023-02-18T03:13:57.937Z,6.20
2023-02-18T03:14:23.374Z,6.20
2023-02-18T03:14:48.964Z,6.20
2023-02-18T03:15:16.320Z,6.10
2023-02-18T03:15:40.915Z,6.10
2023-02-18T03:16:10.449Z,6.10
2023-02-18T03:16:36.539Z,6.10
2023-02-18T03:17:01.141Z,6.10
2023-02-18T03:17:25.803Z,6.10
2023-02-18T03:17:52.545Z,6.00
2023-02-18T03:18:17.588Z,6.00
2023-02-18T03:18:41.462Z,6.00
2023-02-18T03:19:08.175Z,6.00
2023-02-18T03:19:33.631Z,6.00
2023-02-18T03:19:58.474Z,6.00
2023-02-18T03:20:24.334Z,6.00
2023-02-18T03:20:51.302Z,6.00
2023-02-18T03:21:16.800Z,6.00
2023-02-18T03:21:41.783Z,6.00
2023-02-18T03:22:06.855Z,6.10
2023-02-18T03:22:30.884Z,6.10
2023-02-18T03:22:53.634Z,6.10
2023-02-18T03:23:17.124Z,6.10
2023-02-18T03:23:44.133Z,6.10
2023-02-18T03:24:09.290Z,6.20
2023-02-18T03:24:34.336Z,6.20
2023-02-18T03:24:57.765Z,6.20
2023-02-18T03:25:20.513Z,6.20
2023-02-18T03:25:43.262Z,6.20
2023-02-18T03:26:06.140Z,6.20
2023-02-18T03:26:28.997Z,6.20
2023-02-18T03:26:54.442Z,6.20
2023-02-18T03:27:19.052Z,6.20
2023-02-18T03:27:44.024Z,6.20
2023-02-18T03:28:09.041Z,6.20
2023-02-18T03:28:32.809Z,6.30
2023-02-18T03:28:55.863Z,6.20
2023-02-18T03:29:18.580Z,6.30
2023-02-18T03:29:43.897Z,6.30
2023-02-18T03:30:11.094Z,6.30
2023-02-18T03:30:37.479Z,6.30
2023-02-18T03:31:02.424Z,6.30
2023-02-18T03:31:26.839Z,6.30
2023-02-18T03:31:58.639Z,6.30
2023-02-18T03:32:22.639Z,6.30
2023-02-18T03:32:45.639Z,6.30
2023-02-18T03:33:09.144Z,6.20
2023-02-18T03:33:34.106Z,6.20
2023-02-18T03:33:59.978Z,6.30
2023-02-18T03:34:25.342Z,6.30
2023-02-18T03:34:49.869Z,6.30
2023-02-18T03:35:15.301Z,6.30
2023-02-18T03:35:38.081Z,6.30
2023-02-18T03:36:00.993Z,6.30
2023-02-18T03:36:23.844Z,6.30
2023-02-18T03:36:48.863Z,6.30
2023-02-18T03:37:11.536Z,6.30
2023-02-18T03:37:34.219Z,6.30
2023-02-18T03:38:01.162Z,6.20
2023-02-18T03:38:26.385Z,6.20
2023-02-18T03:38:51.526Z,6.20
2023-02-18T03:39:19.142Z,6.20
2023-02-18T03:39:43.013Z,6.10
2023-02-18T03:40:09.187Z,6.10
2023-02-18T03:40:32.062Z,6.10
2023-02-18T03:40:54.757Z,6.00
2023-02-18T03:41:17.419Z,6.10
2023-02-18T03:41:40.334Z,6.10
2023-02-18T03:42:04.403Z,6.00
2023-02-18T03:42:28.043Z,6.00
2023-02-18T03:42:53.250Z,6.00
2023-02-18T03:43:16.023Z,6.00
2023-02-18T03:43:41.291Z,6.00
2023-02-18T03:44:06.838Z,6.10
2023-02-18T03:44:30.739Z,6.10
2023-02-18T03:44:53.589Z,6.10
2023-02-18T03:45:16.328Z,6.10
2023-02-18T03:45:39.348Z,6.10
2023-02-18T03:46:02.257Z,6.20
2023-02-18T03:46:25.197Z,6.20
2023-02-18T03:46:48.043Z,6.20
2023-02-18T03:47:10.919Z,6.20
2023-02-18T03:47:33.654Z,6.20
2023-02-18T03:47:56.313Z,6.20
2023-02-18T03:48:19.140Z,6.20
2023-02-18T03:48:41.999Z,6.30
2023-02-18T03:49:04.647Z,6.30
2023-02-18T03:49:27.535Z,6.20
2023-02-18T03:49:50.484Z,6.20
2023-02-18T03:50:17.764Z,6.20
2023-02-18T03:50:40.451Z,6.20
2023-02-18T03:51:03.218Z,6.20
2023-02-18T03:51:25.960Z,6.10
2023-02-18T03:51:48.788Z,6.10
2023-02-18T03:52:11.609Z,6.10
2023-02-18T03:52:36.993Z,6.10
2023-02-18T03:52:59.664Z,6.00
2023-02-18T03:53:22.477Z,6.00
2023-02-18T03:53:45.195Z,6.00
2023-02-18T03:54:07.863Z,6.00
2023-02-18T03:54:33.147Z,6.00
2023-02-18T03:54:55.847Z,5.90
2023-02-18T03:55:21.858Z,5.90
2023-02-18T03:55:44.744Z,5.90
2023-02-18T03:56:07.975Z,6.00
2023-02-18T03:56:33.490Z,5.90
2023-02-18T03:56:56.166Z,6.00
2023-02-18T03:57:21.306Z,6.00
2023-02-18T03:57:44.058Z,6.00
2023-02-18T03:58:08.008Z,6.00
2023-02-18T03:58:30.846Z,6.00
2023-02-18T03:58:53.600Z,6.00
2023-02-18T03:59:16.335Z,6.00
2023-02-18T03:59:39.047Z,6.00
2023-02-18T04:00:04.329Z,6.00
2023-02-18T04:00:27.049Z,6.00
2023-02-18T04:00:49.822Z,6.10
2023-02-18T04:01:12.515Z,6.10
2023-02-18T04:01:36.069Z,6.10
2023-02-18T04:01:58.884Z,6.10
2023-02-18T04:02:21.593Z,6.10
2023-02-18T04:02:44.432Z,6.10
2023-02-18T04:03:07.114Z,6.10
2023-02-18T04:03:32.045Z,6.10
2023-02-18T04:03:55.613Z,6.10
2023-02-18T04:04:18.510Z,6.10
2023-02-18T04:04:41.353Z,6.10
2023-02-18T04:05:04.078Z,6.10
2023-02-18T04:05:28.844Z,6.10
2023-02-18T04:05:51.706Z,6.10
2023-02-18T04:06:14.499Z,6.10
2023-02-18T04:06:37.241Z,6.10
2023-02-18T04:06:59.930Z,6.10
2023-02-18T04:07:22.761Z,6.10
2023-02-18T04:07:45.467Z,6.10
2023-02-18T04:08:08.188Z,6.10
2023-02-18T04:08:31.217Z,6.10
2023-02-18T04:08:53.909Z,6.10
2023-02-18T04:09:16.583Z,6.10
2023-02-18T04:09:39.364Z,6.20
2023-02-18T04:10:02.073Z,6.20
2023-02-18T04:10:24.838Z,6.20
2023-02-18T04:10:47.494Z,6.20
2023-02-18T04:11:13.224Z,6.20
2023-02-18T04:11:37.437Z,6.20
2023-02-18T04:12:00.129Z,6.20
2023-02-18T04:12:24.259Z,6.20
2023-02-18T04:12:47.197Z,6.20
2023-02-18T04:13:09.917Z,6.20
2023-02-18T04:13:32.646Z,6.20
2023-02-18T04:13:58.522Z,6.20
2023-02-18T04:14:21.310Z,6.20
2023-02-18T04:14:46.536Z,6.20
2023-02-18T04:15:10.194Z,6.20
2023-02-18T04:15:35.225Z,6.20
2023-02-18T04:15:57.943Z,6.20
2023-02-18T04:16:20.752Z,6.20
2023-02-18T04:16:44.040Z,6.20
2023-02-18T04:17:06.777Z,6.20
2023-02-18T04:17:29.473Z,6.20
2023-02-18T04:17:52.210Z,6.20
2023-02-18T04:18:14.844Z,6.20
2023-02-18T04:18:37.558Z,6.20
2023-02-18T04:19:02.507Z,6.30
2023-02-18T04:19:25.295Z,6.20
2023-02-18T04:19:48.117Z,6.30
2023-02-18T04:20:12.057Z,6.30
2023-02-18T04:20:37.604Z,6.30
2023-02-18T04:21:00.221Z,6.30
2023-02-18T04:21:22.963Z,6.40
2023-02-18T04:21:45.715Z,6.40
2023-02-18T04:22:08.401Z,6.40
2023-02-18T04:22:31.137Z,6.40
2023-02-18T04:22:53.839Z,6.40
2023-02-18T04:23:16.566Z,6.40
2023-02-18T04:23:41.630Z,6.40
2023-02-18T04:24:04.640Z,6.40
2023-02-18T04:24:27.392Z,6.40
2023-02-18T04:24:50.038Z,6.50
2023-02-18T04:25:12.807Z,6.40
2023-02-18T04:25:35.566Z,6.50
2023-02-18T04:25:58.256Z,6.50
2023-02-18T04:26:24.123Z,6.50
2023-02-18T04:26:46.864Z,6.40
2023-02-18T04:27:12.626Z,6.40
2023-02-18T04:27:35.563Z,6.40
2023-02-18T04:28:01.007Z,6.50
2023-02-18T04:28:23.673Z,6.50
2023-02-18T04:28:46.437Z,6.50
2023-02-18T04:29:09.102Z,6.50
2023-02-18T04:29:31.814Z,6.40
2023-02-18T04:29:54.482Z,6.40
2023-02-18T04:30:18.884Z,6.40
2023-02-18T04:30:41.962Z,6.40
2023-02-18T04:31:05.175Z,6.40
2023-02-18T04:31:31.187Z,6.40
2023-02-18T04:31:54.076Z,6.40
2023-02-18T04:32:19.816Z,6.30
2023-02-18T04:32:42.551Z,6.30
2023-02-18T04:33:05.249Z,6.20
2023-02-18T04:33:27.940Z,6.20
2023-02-18T04:33:50.670Z,6.20
2023-02-18T04:34:13.324Z,6.10
2023-02-18T04:34:39.298Z,6.10
2023-02-18T04:35:02.000Z,6.10
2023-02-18T04:35:24.790Z,6.10
2023-02-18T04:35:49.060Z,6.00
2023-02-18T04:36:11.726Z,6.00
2023-02-18T04:36:34.504Z,6.00
2023-02-18T04:36:57.566Z,6.00
2023-02-18T04:37:20.238Z,6.00
2023-02-18T04:37:45.436Z,6.00
2023-02-18T04:38:09.731Z,6.00
2023-02-18T04:38:32.484Z,6.10
2023-02-18T04:38:58.002Z,6.00
2023-02-18T04:39:20.731Z,6.00
2023-02-18T04:39:43.417Z,6.00
2023-02-18T04:40:11.118Z,6.00
2023-02-18T04:40:33.762Z,6.00
2023-02-18T04:40:56.534Z,6.00
2023-02-18T04:41:19.202Z,6.00
2023-02-18T04:41:44.161Z,5.90
2023-02-18T04:42:09.234Z,6.00
2023-02-18T04:42:32.085Z,6.00
2023-02-18T04:42:57.132Z,6.00
2023-02-18T04:43:19.836Z,6.00
2023-02-18T04:43:42.611Z,6.00
2023-02-18T04:44:08.472Z,6.00
2023-02-18T04:44:31.242Z,6.00
2023-02-18T04:44:53.933Z,6.00
2023-02-18T04:45:20.150Z,6.00
2023-02-18T04:45:42.907Z,6.00
2023-02-18T04:46:05.869Z,5.90
2023-02-18T04:46:29.071Z,5.90
2023-02-18T04:46:51.851Z,5.90
2023-02-18T04:47:15.655Z,5.90
2023-02-18T04:47:38.424Z,5.90
2023-02-18T04:48:01.129Z,5.90
2023-02-18T04:48:23.850Z,5.90
2023-02-18T04:48:46.602Z,5.90
2023-02-18T04:49:09.237Z,5.90
2023-02-18T04:49:32.985Z,6.00
2023-02-18T04:49:55.742Z,6.10
2023-02-18T04:50:18.721Z,6.00
2023-02-18T04:50:41.414Z,6.10
2023-02-18T04:51:06.043Z,6.10
2023-02-18T04:51:29.357Z,6.10
2023-02-18T04:51:55.020Z,6.10
2023-02-18T04:52:17.766Z,6.20
2023-02-18T04:52:40.481Z,6.20
2023-02-18T04:53:03.212Z,6.10
2023-02-18T04:53:28.122Z,6.20
2023-02-18T04:53:50.890Z,6.10
2023-02-18T04:54:13.601Z,6.10
2023-02-18T04:54:36.282Z,6.10
2023-02-18T04:54:59.261Z,6.10
2023-02-18T04:55:21.964Z,6.10
2023-02-18T04:55:47.022Z,6.10
2023-02-18T04:56:10.263Z,6.10
2023-02-18T04:56:33.110Z,6.10
2023-02-18T04:56:56.962Z,6.10
2023-02-18T04:57:19.688Z,6.10
2023-02-18T04:57:42.488Z,6.10
2023-02-18T04:58:05.237Z,6.10
2023-02-18T04:58:29.062Z,6.10
2023-02-18T04:58:51.736Z,6.10
2023-02-18T04:59:14.498Z,6.00
2023-02-18T04:59:37.203Z,6.00
2023-02-18T04:59:59.857Z,6.00
2023-02-18T05:00:22.739Z,6.00
2023-02-18T05:00:45.624Z,6.00
2023-02-18T05:01:08.370Z,5.90
2023-02-18T05:01:31.133Z,6.00
2023-02-18T05:01:53.820Z,6.00
2023-02-18T05:02:16.519Z,6.00
2023-02-18T05:02:39.209Z,5.90
2023-02-18T05:03:02.245Z,5.90
2023-02-18T05:03:25.023Z,5.90
2023-02-18T05:03:47.840Z,5.90
2023-02-18T05:04:10.839Z,5.90
2023-02-18T05:04:33.764Z,5.90
2023-02-18T05:04:56.505Z,5.90
2023-02-18T05:05:19.444Z,5.90
2023-02-18T05:05:42.245Z,5.90
2023-02-18T05:06:07.260Z,5.90
2023-02-18T05:06:32.535Z,5.90
2023-02-18T05:06:57.707Z,5.90
2023-02-18T05:07:20.593Z,5.90
2023-02-18T05:07:43.331Z,5.90
2023-02-18T05:08:06.279Z,5.90
2023-02-18T05:08:28.966Z,5.90
2023-02-18T05:08:54.088Z,5.90
2023-02-18T05:09:16.802Z,5.90
2023-02-18T05:09:41.946Z,5.90
2023-02-18T05:10:04.912Z,5.90
2023-02-18T05:10:29.864Z,5.90
2023-02-18T05:10:52.635Z,5.90
2023-02-18T05:11:15.397Z,5.90
2023-02-18T05:11:38.167Z,5.90
2023-02-18T05:12:00.903Z,5.90
2023-02-18T05:12:23.573Z,6.00
2023-02-18T05:12:48.726Z,6.00
2023-02-18T05:13:11.505Z,6.00
2023-02-18T05:13:36.657Z,6.00
2023-02-18T05:13:59.367Z,6.00
2023-02-18T05:14:22.067Z,6.00
2023-02-18T05:14:44.948Z,6.00
2023-02-18T05:15:09.122Z,6.00
2023-02-18T05:15:31.809Z,6.00
2023-02-18T05:15:54.528Z,6.00
2023-02-18T05:16:17.394Z,6.00
2023-02-18T05:16:40.166Z,5.90
2023-02-18T05:17:03.260Z,6.00
2023-02-18T05:17:25.957Z,6.00
2023-02-18T05:17:50.970Z,6.00
2023-02-18T05:18:13.719Z,6.00
2023-02-18T05:18:36.384Z,6.00
2023-02-18T05:18:59.060Z,6.00
2023-02-18T05:19:21.779Z,6.00
2023-02-18T05:19:47.405Z,6.10
2023-02-18T05:20:11.052Z,6.10
2023-02-18T05:20:33.995Z,6.10
2023-02-18T05:20:56.608Z,6.20
2023-02-18T05:21:20.844Z,6.20
2023-02-18T05:21:43.626Z,6.20
2023-02-18T05:22:09.329Z,6.20
2023-02-18T05:22:32.019Z,6.20
2023-02-18T05:22:54.676Z,6.20
2023-02-18T05:23:20.273Z,6.20
2023-02-18T05:23:42.907Z,6.30
2023-02-18T05:24:09.156Z,6.20
2023-02-18T05:24:31.849Z,6.20
2023-02-18T05:24:54.584Z,6.20
2023-02-18T05:25:20.589Z,6.20
2023-02-18T05:25:43.257Z,6.10
2023-02-18T05:26:08.409Z,6.10
2023-02-18T05:26:31.626Z,6.10
2023-02-18T05:26:54.306Z,6.10
2023-02-18T05:27:17.009Z,6.10
2023-02-18T05:27:39.786Z,6.10
2023-02-18T05:28:02.502Z,6.10
2023-02-18T05:28:26.220Z,6.00
2023-02-18T05:28:51.196Z,6.10
2023-02-18T05:29:13.888Z,6.10
2023-02-18T05:29:39.044Z,6.10
2023-02-18T05:30:01.815Z,6.00
2023-02-18T05:30:24.614Z,6.10
2023-02-18T05:30:47.458Z,6.00
2023-02-18T05:31:12.529Z,6.10